createdAt,value
2019-01-18T00:02:24.345Z,14.30
2019-01-18T00:04:54.345Z,14.30
2019-01-18T00:07:24.354Z,14.30
2019-01-18T00:09:54.439Z,14.20
2019-01-18T00:12:24.503Z,14.20
2019-01-18T00:14:54.598Z,14.10
2019-01-18T00:17:24.619Z,14.20
2019-01-18T00:19:54.630Z,14.10
2019-01-18T00:22:24.783Z,14.10
2019-01-18T00:24:54.766Z,14.10
2019-01-18T00:27:24.879Z,14.10
2019-01-18T00:29:54.913Z,14.10
2019-01-18T00:32:24.973Z,14.10
2019-01-18T00:34:54.987Z,14.10
2019-01-18T00:37:25.002Z,14.10
2019-01-18T00:39:55.043Z,14.10
2019-01-18T00:42:25.066Z,14.10
2019-01-18T00:44:55.078Z,14.10
2019-01-18T00:47:25.199Z,14.20
2019-01-18T00:49:55.261Z,14.10
2019-01-18T00:52:25.274Z,14.20
2019-01-18T00:54:55.306Z,14.20
2019-01-18T00:57:25.303Z,14.20
2019-01-18T00:59:55.322Z,14.20
2019-01-18T01:02:25.350Z,14.20
2019-01-18T01:04:55.478Z,14.20
2019-01-18T01:07:25.502Z,14.30
2019-01-18T01:09:55.532Z,14.30
2019-01-18T01:12:25.653Z,14.30
2019-01-18T01:14:55.774Z,14.30
2019-01-18T01:17:25.866Z,14.30
2019-01-18T01:19:55.937Z,14.20
2019-01-18T01:22:26.109Z,14.20
2019-01-18T01:24:56.230Z,14.20
2019-01-18T01:27:26.322Z,14.20
2019-01-18T01:29:56.435Z,14.20
2019-01-18T01:32:26.526Z,14.20
2019-01-18T01:34:56.646Z,14.20
2019-01-18T01:37:26.722Z,14.20
2019-01-18T01:39:56.774Z,14.20
2019-01-18T01:42:26.917Z,14.20
2019-01-18T01:44:56.994Z,14.20
2019-01-18T01:47:27.098Z,14.20
2019-01-18T01:49:57.167Z,14.10
2019-01-18T01:52:27.178Z,14.20
2019-01-18T01:54:57.342Z,14.10
2019-01-18T01:57:27.385Z,14.10
2019-01-18T01:59:57.386Z,14.00
2019-01-18T02:02:27.547Z,14.00
2019-01-18T02:04:57.702Z,14.00
2019-01-18T02:07:27.808Z,13.90
2019-01-18T02:09:57.870Z,13.90
2019-01-18T02:12:27.982Z,13.90
2019-01-18T02:14:58.101Z,13.90
2019-01-18T02:17:28.235Z,13.90
2019-01-18T02:19:58.286Z,13.90
2019-01-18T02:22:28.270Z,13.90
2019-01-18T02:24:58.342Z,13.90
2019-01-18T02:27:28.431Z,13.90
2019-01-18T02:29:58.473Z,13.80
2019-01-18T02:32:28.711Z,13.90
2019-01-18T02:34:58.749Z,13.90
2019-01-18T02:37:28.779Z,13.90
2019-01-18T02:39:58.850Z,13.90
2019-01-18T02:42:28.883Z,13.90
2019-01-18T02:44:58.902Z,13.90
2019-01-18T02:47:29.204Z,13.80
2019-01-18T02:49:59.858Z,13.80
2019-01-18T02:52:29.856Z,13.80
2019-01-18T02:54:59.863Z,13.90
2019-01-18T02:57:29.967Z,13.90
2019-01-18T03:00:04.647Z,13.90
2019-01-18T03:02:31.660Z,13.90
2019-01-18T03:05:01.657Z,13.90
2019-01-18T03:07:31.795Z,13.90
2019-01-18T03:10:01.814Z,13.90
2019-01-18T03:12:31.850Z,13.90
2019-01-18T03:15:01.919Z,13.90
2019-01-18T03:17:31.925Z,13.90
2019-01-18T03:20:01.954Z,13.80
2019-01-18T03:22:31.981Z,13.90
2019-01-18T03:25:02.032Z,13.80
2019-01-18T03:27:32.122Z,13.80
2019-01-18T03:30:02.145Z,13.90
2019-01-18T03:32:32.128Z,13.80
2019-01-18T03:35:02.158Z,13.90
2019-01-18T03:37:32.166Z,13.90
2019-01-18T03:40:02.265Z,13.80
2019-01-18T03:42:32.401Z,13.80
2019-01-18T03:45:02.402Z,13.80
2019-01-18T03:47:32.432Z,13.80
2019-01-18T03:50:02.485Z,13.80
2019-01-18T03:52:32.507Z,13.80
2019-01-18T03:55:02.529Z,13.80
2019-01-18T03:57:32.671Z,13.80
2019-01-18T04:00:02.779Z,13.80
2019-01-18T04:02:32.794Z,13.80
2019-01-18T04:05:02.781Z,13.80
2019-01-18T04:07:32.809Z,13.80
2019-01-18T04:10:02.850Z,13.80
2019-01-18T04:12:32.870Z,13.80
2019-01-18T04:15:02.974Z,13.80
2019-01-18T04:17:33.026Z,13.80
2019-01-18T04:20:03.033Z,13.80
2019-01-18T04:22:33.163Z,13.80
2019-01-18T04:25:03.266Z,13.80
2019-01-18T04:27:33.297Z,13.80
2019-01-18T04:30:03.303Z,13.90
2019-01-18T04:32:33.343Z,13.90
2019-01-18T04:35:03.504Z,13.90
2019-01-18T04:37:33.522Z,13.80
2019-01-18T04:40:03.740Z,13.90
2019-01-18T04:42:33.776Z,13.80
2019-01-18T04:45:03.799Z,13.80
2019-01-18T04:47:33.804Z,13.80
2019-01-18T04:50:04.170Z,13.80
2019-01-18T04:52:34.180Z,13.80
2019-01-18T04:55:04.587Z,13.80
2019-01-18T04:57:34.585Z,13.80
2019-01-18T05:00:06.044Z,13.90
2019-01-18T05:02:36.144Z,13.90
2019-01-18T05:05:07.064Z,13.80
2019-01-18T05:07:37.123Z,13.80
2019-01-18T05:10:08.497Z,13.90
2019-01-18T05:12:38.489Z,13.90
2019-01-18T05:15:10.932Z,13.90
2019-01-18T05:17:41.067Z,13.80
2019-01-18T05:20:11.882Z,13.80
2019-01-18T05:22:41.992Z,13.90
2019-01-18T05:25:13.155Z,13.90
2019-01-18T05:27:43.285Z,13.90
2019-01-18T05:30:18.942Z,13.90
2019-01-18T05:32:49.151Z,13.90
2019-01-18T05:35:19.410Z,13.90
2019-01-18T05:37:49.623Z,13.90
2019-01-18T05:40:20.069Z,13.90
2019-01-18T05:42:50.273Z,13.90
2019-01-18T05:45:21.645Z,13.90
2019-01-18T05:47:52.171Z,13.90
2019-01-18T05:50:27.473Z,14.00
2019-01-18T05:52:58.170Z,14.00
2019-01-18T05:55:28.291Z,14.00
2019-01-18T05:57:58.287Z,14.00
2019-01-18T06:00:42.243Z,14.00
2019-01-18T06:03:12.594Z,14.00
2019-01-18T06:05:57.722Z,14.00
2019-01-18T06:08:31.501Z,13.90
2019-01-18T06:11:04.076Z,14.00
2019-01-18T06:13:34.218Z,14.00
2019-01-18T06:16:04.342Z,14.00
2019-01-18T06:18:34.596Z,14.00
2019-01-18T06:21:04.727Z,14.00
2019-01-18T06:23:34.956Z,14.00
2019-01-18T06:26:05.094Z,14.00
2019-01-18T06:28:35.117Z,13.90
2019-01-18T06:31:05.352Z,13.90
2019-01-18T06:33:35.482Z,13.90
2019-01-18T06:36:05.651Z,13.90
2019-01-18T06:38:35.734Z,13.90
2019-01-18T06:41:23.397Z,14.00
2019-01-18T06:43:53.400Z,13.90
2019-01-18T06:46:23.452Z,14.00
2019-01-18T06:48:54.829Z,14.00
2019-01-18T06:51:25.004Z,14.00
2019-01-18T06:53:55.058Z,13.90
2019-01-18T06:56:25.231Z,14.00
2019-01-18T06:58:55.230Z,14.00
2019-01-18T07:01:25.297Z,14.00
2019-01-18T07:03:55.316Z,14.00
2019-01-18T07:06:25.287Z,14.00
2019-01-18T07:08:55.307Z,14.00
2019-01-18T07:11:25.357Z,14.00
2019-01-18T07:13:55.369Z,14.00
2019-01-18T07:16:25.501Z,14.00
2019-01-18T07:18:55.634Z,14.00
2019-01-18T07:21:25.630Z,14.00
2019-01-18T07:23:55.759Z,14.00
2019-01-18T07:26:25.810Z,14.00
2019-01-18T07:28:55.868Z,14.00
2019-01-18T07:31:26.077Z,14.00
2019-01-18T07:33:56.298Z,14.00
2019-01-18T07:36:26.375Z,14.00
2019-01-18T07:39:00.471Z,14.00
2019-01-18T07:41:28.114Z,14.00
2019-01-18T07:43:58.135Z,14.00
2019-01-18T07:46:28.245Z,14.00
2019-01-18T07:48:58.347Z,14.00
2019-01-18T07:51:28.361Z,14.00
2019-01-18T07:53:58.387Z,14.00
2019-01-18T07:56:28.424Z,14.00
2019-01-18T07:58:58.450Z,14.00
2019-01-18T08:01:28.470Z,14.00
2019-01-18T08:03:58.489Z,14.00
2019-01-18T08:06:28.498Z,14.00
2019-01-18T08:08:58.665Z,14.00
2019-01-18T08:11:28.668Z,14.00
2019-01-18T08:13:58.791Z,14.00
2019-01-18T08:16:28.773Z,14.10
2019-01-18T08:18:58.778Z,14.10
2019-01-18T08:21:28.900Z,14.10
2019-01-18T08:23:59.089Z,14.20
2019-01-18T08:26:29.093Z,14.20
2019-01-18T08:28:59.129Z,14.30
2019-01-18T08:31:29.270Z,14.30
2019-01-18T08:33:59.382Z,14.40
2019-01-18T08:36:29.410Z,14.40
2019-01-18T08:38:59.471Z,14.40
2019-01-18T08:41:29.634Z,14.40
2019-01-18T08:43:59.708Z,14.40
2019-01-18T08:46:29.734Z,14.40
2019-01-18T08:49:01.215Z,14.40
2019-01-18T08:51:31.486Z,14.30
2019-01-18T08:54:01.500Z,14.30
2019-01-18T08:56:31.631Z,14.30
2019-01-18T08:59:01.663Z,14.30
2019-01-18T09:01:35.706Z,14.30
2019-01-18T09:04:03.414Z,14.30
2019-01-18T09:06:33.455Z,14.30
2019-01-18T09:09:03.555Z,14.30
2019-01-18T09:11:33.590Z,14.30
2019-01-18T09:14:03.691Z,14.20
2019-01-18T09:16:33.711Z,14.30
2019-01-18T09:19:03.883Z,14.30
2019-01-18T09:21:33.895Z,14.30
2019-01-18T09:24:03.942Z,14.40
2019-01-18T09:26:33.994Z,14.40
2019-01-18T09:29:04.200Z,14.40
2019-01-18T09:31:34.464Z,14.40
2019-01-18T09:34:04.559Z,14.50
2019-01-18T09:36:34.706Z,14.50
2019-01-18T09:39:06.613Z,14.50
2019-01-18T09:41:36.630Z,14.60
2019-01-18T09:44:06.733Z,14.80
2019-01-18T09:46:36.771Z,14.90
2019-01-18T09:49:06.775Z,15.00
2019-01-18T09:51:36.927Z,15.20
2019-01-18T09:54:07.062Z,15.30
2019-01-18T09:56:37.062Z,15.40
2019-01-18T09:59:07.071Z,15.50
2019-01-18T10:01:37.193Z,15.60
2019-01-18T10:04:07.213Z,15.70
2019-01-18T10:06:37.243Z,15.70
2019-01-18T10:09:09.053Z,15.70
2019-01-18T10:11:39.100Z,15.70
2019-01-18T10:14:09.186Z,15.60
2019-01-18T10:16:39.220Z,15.60
2019-01-18T10:19:09.293Z,15.60
2019-01-18T10:21:39.420Z,15.60
2019-01-18T10:24:09.434Z,15.60
2019-01-18T10:26:39.662Z,15.50
2019-01-18T10:29:09.786Z,15.60
2019-01-18T10:31:39.826Z,15.60
2019-01-18T10:34:09.834Z,15.60
2019-01-18T10:36:40.086Z,15.60
2019-01-18T10:39:11.299Z,15.50
2019-01-18T10:41:41.427Z,15.50
2019-01-18T10:44:11.473Z,15.50
2019-01-18T10:46:41.630Z,15.50
2019-01-18T10:49:11.770Z,15.60
2019-01-18T10:51:41.814Z,15.60
2019-01-18T10:54:11.830Z,15.50
2019-01-18T10:56:41.926Z,15.60
2019-01-18T10:59:11.987Z,15.70
2019-01-18T11:01:41.963Z,15.70
2019-01-18T11:04:11.983Z,15.70
2019-01-18T11:06:42.002Z,15.70
2019-01-18T11:09:12.041Z,15.70
2019-01-18T11:11:42.069Z,15.70
2019-01-18T11:14:12.094Z,15.60
2019-01-18T11:16:42.204Z,15.70
2019-01-18T11:19:13.718Z,15.60
2019-01-18T11:21:43.890Z,15.70
2019-01-18T11:24:13.899Z,15.60
2019-01-18T11:26:43.899Z,15.70
2019-01-18T11:29:13.934Z,15.60
2019-01-18T11:31:44.023Z,15.60
2019-01-18T11:34:14.059Z,15.60
2019-01-18T11:36:44.198Z,15.60
2019-01-18T11:39:14.218Z,15.50
2019-01-18T11:41:44.536Z,15.60
2019-01-18T11:44:14.754Z,15.60
2019-01-18T11:46:44.863Z,15.60
2019-01-18T11:49:14.890Z,15.80
2019-01-18T11:51:44.959Z,15.80
2019-01-18T11:54:14.970Z,15.80
2019-01-18T11:56:45.007Z,15.80
2019-01-18T11:59:15.163Z,15.90
2019-01-18T12:01:45.368Z,16.00
2019-01-18T12:04:15.395Z,16.00
2019-01-18T12:06:45.502Z,16.00
2019-01-18T12:09:15.579Z,15.90
2019-01-18T12:11:45.671Z,15.90
2019-01-18T12:14:15.734Z,15.90
2019-01-18T12:16:45.743Z,15.90
2019-01-18T12:19:15.904Z,15.80
2019-01-18T12:21:45.900Z,15.80
2019-01-18T12:24:16.022Z,15.80
2019-01-18T12:26:46.178Z,15.90
2019-01-18T12:29:16.307Z,15.90
2019-01-18T12:31:46.752Z,15.90
2019-01-18T12:34:16.762Z,16.00
2019-01-18T12:36:46.891Z,15.90
2019-01-18T12:39:17.023Z,15.90
2019-01-18T12:41:47.057Z,15.90
2019-01-18T12:44:17.058Z,16.00
2019-01-18T12:46:47.209Z,15.80
2019-01-18T12:49:17.353Z,16.00
2019-01-18T12:51:47.543Z,16.10
2019-01-18T12:54:17.623Z,16.00
2019-01-18T12:56:47.857Z,15.90
2019-01-18T12:59:17.887Z,16.00
2019-01-18T13:01:47.883Z,16.00
2019-01-18T13:04:18.072Z,16.00
2019-01-18T13:06:48.146Z,16.10
2019-01-18T13:09:18.158Z,16.00
2019-01-18T13:11:48.207Z,16.00
2019-01-18T13:14:18.349Z,16.00
2019-01-18T13:16:49.217Z,15.90
2019-01-18T13:19:22.030Z,16.00
2019-01-18T13:21:52.150Z,16.00
2019-01-18T13:24:22.455Z,16.00
2019-01-18T13:26:52.730Z,16.00
2019-01-18T13:29:22.871Z,16.00
2019-01-18T13:31:53.044Z,16.00
2019-01-18T13:34:23.158Z,16.00
2019-01-18T13:36:53.209Z,16.00
2019-01-18T13:39:23.260Z,16.00
2019-01-18T13:41:53.456Z,16.00
2019-01-18T13:44:23.679Z,16.00
2019-01-18T13:46:53.867Z,16.10
2019-01-18T13:49:23.955Z,16.00
2019-01-18T13:51:54.270Z,16.00
2019-01-18T13:54:24.387Z,16.00
2019-01-18T13:56:54.571Z,16.00
2019-01-18T13:59:24.618Z,16.10
2019-01-18T14:01:54.939Z,16.10
2019-01-18T14:04:24.995Z,16.10
2019-01-18T14:06:55.088Z,16.00
2019-01-18T14:09:28.192Z,16.00
2019-01-18T14:11:58.266Z,15.90
2019-01-18T14:14:28.290Z,15.90
2019-01-18T14:16:58.319Z,15.90
2019-01-18T14:19:28.458Z,15.90
2019-01-18T14:21:58.595Z,15.90
2019-01-18T14:24:28.630Z,15.90
2019-01-18T14:26:58.663Z,15.90
2019-01-18T14:29:28.680Z,15.90
2019-01-18T14:31:58.842Z,15.90
2019-01-18T14:34:28.974Z,15.90
2019-01-18T14:36:59.236Z,15.80
2019-01-18T14:39:29.285Z,15.80
2019-01-18T14:41:59.435Z,15.80
2019-01-18T14:44:29.531Z,15.80
2019-01-18T14:46:59.575Z,15.80
2019-01-18T14:49:32.540Z,15.80
2019-01-18T14:52:01.305Z,15.80
2019-01-18T14:54:31.353Z,15.80
2019-01-18T14:57:01.474Z,15.70
2019-01-18T14:59:31.490Z,15.70
2019-01-18T15:02:01.529Z,15.80
2019-01-18T15:04:31.550Z,15.70
2019-01-18T15:07:01.618Z,15.80
2019-01-18T15:09:31.670Z,15.70
2019-01-18T15:12:01.695Z,15.70
2019-01-18T15:14:31.722Z,15.70
2019-01-18T15:17:01.718Z,15.70
2019-01-18T15:19:31.835Z,15.70
2019-01-18T15:22:01.884Z,15.80
2019-01-18T15:24:32.068Z,15.80
2019-01-18T15:27:02.066Z,15.80
2019-01-18T15:29:32.314Z,15.70
2019-01-18T15:32:02.321Z,15.70
2019-01-18T15:34:32.513Z,15.70
2019-01-18T15:37:02.723Z,15.60
2019-01-18T15:39:32.739Z,15.60
2019-01-18T15:42:02.924Z,15.60
2019-01-18T15:44:33.119Z,15.70
2019-01-18T15:47:03.279Z,15.60
2019-01-18T15:49:33.456Z,15.60
2019-01-18T15:52:03.751Z,15.70
2019-01-18T15:54:33.767Z,15.60
2019-01-18T15:57:03.895Z,15.60
2019-01-18T15:59:38.903Z,15.60
2019-01-18T16:02:09.181Z,15.70
2019-01-18T16:04:39.573Z,15.70
2019-01-18T16:07:12.509Z,15.70
2019-01-18T16:09:42.613Z,15.70
2019-01-18T16:12:12.595Z,15.60
2019-01-18T16:14:42.647Z,15.60
2019-01-18T16:17:21.491Z,15.50
2019-01-18T16:19:51.571Z,15.60
2019-01-18T16:22:21.598Z,15.50
2019-01-18T16:24:51.703Z,15.50
2019-01-18T16:27:21.765Z,15.50
2019-01-18T16:29:51.777Z,15.50
2019-01-18T16:32:22.085Z,15.50
2019-01-18T16:34:52.122Z,15.50
2019-01-18T16:37:22.307Z,15.50
2019-01-18T16:39:52.315Z,15.50
2019-01-18T16:42:23.341Z,15.50
2019-01-18T16:44:53.362Z,15.50
2019-01-18T16:47:23.367Z,15.50
2019-01-18T16:49:53.398Z,15.50
2019-01-18T16:52:23.597Z,15.50
2019-01-18T16:54:53.807Z,15.50
2019-01-18T16:57:23.862Z,15.50
2019-01-18T16:59:53.848Z,15.50
2019-01-18T17:02:23.906Z,15.40
2019-01-18T17:04:54.015Z,15.50
2019-01-18T17:07:24.255Z,15.40
2019-01-18T17:09:54.397Z,15.50
2019-01-18T17:12:24.442Z,15.40
2019-01-18T17:14:54.502Z,15.40
2019-01-18T17:17:24.649Z,15.40
2019-01-18T17:19:54.693Z,15.40
2019-01-18T17:22:24.738Z,15.40
2019-01-18T17:24:55.390Z,15.30
2019-01-18T17:27:25.517Z,15.30
2019-01-18T17:29:55.707Z,15.20
2019-01-18T17:32:25.942Z,15.20
2019-01-18T17:34:55.936Z,15.20
2019-01-18T17:37:30.886Z,15.20
2019-01-18T17:40:23.908Z,15.20
2019-01-18T17:43:18.406Z,15.20
2019-01-18T17:46:25.710Z,15.20
2019-01-18T17:49:39.615Z,15.20
2019-01-18T17:52:54.971Z,15.20
2019-01-18T17:56:14.559Z,15.20
2019-01-18T17:59:27.051Z,15.20
2019-01-18T18:02:37.939Z,15.20
2019-01-18T18:05:41.955Z,15.20
2019-01-18T18:08:45.627Z,15.20
2019-01-18T18:11:30.526Z,15.20
2019-01-18T18:14:24.914Z,15.20
2019-01-18T18:17:32.988Z,15.30
2019-01-18T18:20:36.674Z,15.30
2019-01-18T18:23:28.111Z,15.30
2019-01-18T18:26:20.950Z,15.40
2019-01-18T18:29:33.572Z,15.50
2019-01-18T18:32:22.652Z,15.40
2019-01-18T18:35:44.320Z,15.40
2019-01-18T18:38:38.683Z,15.40
2019-01-18T18:41:42.266Z,15.30
2019-01-18T18:45:01.939Z,15.30
2019-01-18T18:48:15.762Z,15.30
2019-01-18T18:51:35.367Z,15.30
2019-01-18T18:54:41.570Z,15.20
2019-01-18T18:57:37.362Z,15.30
2019-01-18T19:00:28.826Z,15.30
2019-01-18T19:03:21.551Z,15.30
2019-01-18T19:06:41.208Z,15.30
2019-01-18T19:09:31.283Z,15.30
2019-01-18T19:12:38.039Z,15.20
2019-01-18T19:15:57.974Z,15.20
2019-01-18T19:18:42.191Z,15.20
2019-01-18T19:22:04.721Z,15.30
2019-01-18T19:25:04.699Z,15.30
2019-01-18T19:28:21.473Z,15.30
2019-01-18T19:31:41.606Z,15.30
2019-01-18T19:35:01.162Z,15.30
2019-01-18T19:38:06.525Z,15.20
2019-01-18T19:41:11.203Z,15.20
2019-01-18T19:44:00.818Z,15.30
2019-01-18T19:46:51.572Z,15.30
2019-01-18T19:49:49.027Z,15.30
2019-01-18T19:53:01.952Z,15.30
2019-01-18T19:56:10.151Z,15.30
2019-01-18T19:59:30.014Z,15.30
2019-01-18T20:02:28.034Z,15.30
2019-01-18T20:05:29.062Z,15.30
2019-01-18T20:08:45.553Z,15.20
2019-01-18T20:11:53.447Z,15.30
2019-01-18T20:14:49.505Z,15.20
2019-01-18T20:18:30.459Z,15.20
2019-01-18T20:21:34.629Z,15.20
2019-01-18T20:24:47.194Z,15.20
2019-01-18T20:27:47.884Z,15.20
2019-01-18T20:30:38.621Z,15.30
2019-01-18T20:34:19.066Z,15.30
2019-01-18T20:36:58.619Z,15.30
2019-01-18T20:40:17.408Z,15.20
2019-01-18T20:43:26.451Z,15.20
2019-01-18T20:46:41.012Z,15.20
2019-01-18T20:49:48.252Z,15.20
2019-01-18T20:53:32.462Z,15.20
2019-01-18T20:56:25.945Z,15.20
2019-01-18T20:59:26.343Z,15.20
2019-01-18T21:02:37.289Z,15.20
2019-01-18T21:05:52.234Z,15.20
2019-01-18T21:08:48.267Z,15.20
2019-01-18T21:11:39.728Z,15.20
2019-01-18T21:14:37.722Z,15.20
2019-01-18T21:18:03.678Z,15.20
2019-01-18T21:21:10.147Z,15.20
2019-01-18T21:24:05.127Z,15.20
2019-01-18T21:27:12.883Z,15.20
2019-01-18T21:30:35.241Z,15.20
2019-01-18T21:33:47.446Z,15.20
2019-01-18T21:37:03.189Z,15.20
2019-01-18T21:40:00.851Z,15.20
2019-01-18T21:43:09.229Z,15.20
2019-01-18T21:46:19.270Z,15.20
2019-01-18T21:49:22.361Z,15.30
2019-01-18T21:52:27.506Z,15.30
2019-01-18T21:55:47.566Z,15.30
2019-01-18T21:58:52.254Z,15.30
2019-01-18T22:02:00.202Z,15.20
2019-01-18T22:04:43.640Z,15.20
2019-01-18T22:07:47.099Z,15.20
2019-01-18T22:10:56.742Z,15.20
2019-01-18T22:13:55.919Z,15.20
2019-01-18T22:16:55.197Z,15.20
2019-01-18T22:19:54.500Z,15.20
2019-01-18T22:22:41.722Z,15.20
2019-01-18T22:26:01.470Z,15.20
2019-01-18T22:28:46.946Z,15.20
2019-01-18T22:31:43.895Z,15.20
2019-01-18T22:34:38.611Z,15.20
2019-01-18T22:37:52.349Z,15.20
2019-01-18T22:41:01.379Z,15.20
2019-01-18T22:44:27.150Z,15.20
2019-01-18T22:47:40.650Z,15.20
2019-01-18T22:50:37.434Z,15.10
2019-01-18T22:53:53.101Z,15.10
2019-01-18T22:56:49.792Z,15.10
2019-01-18T23:00:06.615Z,15.10
2019-01-18T23:02:57.082Z,15.10
2019-01-18T23:06:01.560Z,15.10
2019-01-18T23:09:01.402Z,15.10
2019-01-18T23:11:49.471Z,15.00
2019-01-18T23:15:06.486Z,15.00
2019-01-18T23:17:51.699Z,15.00
2019-01-18T23:20:56.546Z,15.10
2019-01-18T23:23:59.362Z,15.00
2019-01-18T23:27:05.840Z,15.00
2019-01-18T23:30:08.986Z,15.00
2019-01-18T23:33:02.881Z,14.90
2019-01-18T23:35:55.664Z,14.90
2019-01-18T23:39:21.590Z,14.90
2019-01-18T23:42:52.327Z,14.90
2019-01-18T23:45:43.491Z,14.80
2019-01-18T23:48:59.271Z,14.80
2019-01-18T23:51:53.274Z,14.80
2019-01-18T23:55:05.820Z,14.80
2019-01-18T23:58:15.734Z,14.80
